AirNav   Pilot Hours Calculator
 
 298 users online  

33MA Seagate Heliport
Manchester, Massachusetts, USA

GOING TO MANCHESTER?


FAA INFORMATION EFFECTIVE 05 DECEMBER 2019

Location

FAA Identifier: 33MA
Lat/Long: 42-33-35.3400N 070-46-20.1700W
42-33.589000N 070-46.336167W
42.5598167,-70.7722694
(estimated)
Elevation: 40 ft. / 12 m (estimated)
Variation: 16W (2000)
From city: 2 miles E of MANCHESTER, MA
Time zone: UTC -5 (UTC -4 during Daylight Saving Time)
Zip code: 01944

Heliport Operations

Heliport use: Private use. Permission required prior to landing
Activation date: 08/2002
Control tower: no
ARTCC: BOSTON CENTER
FSS: BRIDGEPORT FLIGHT SERVICE STATION
Attendance: UNATNDD
Segmented circle: no

Heliport Communications

WX ASOS at BVY (7 nm W): PHONE 978-921-5042
WX ASOS at BOS (16 nm SW): PHONE 617-567-5762
WX ASOS at LWM (18 nm NW): PHONE 978-687-8017

Nearby radio navigation aids

VOR radial/distance  VOR name  Freq  Var
BOSr054/15.5BOSTON VOR/DME112.7016W
LWMr142/17.9LAWRENCE VOR/DME112.5015W
PSMr191/31.6PEASE VOR/DME116.5016W
MHTr140/32.2MANCHESTER VOR/DME114.4015W

 
NDB name  Hdg/Dist  Freq  Var  ID
MARSHFIELD007/28.036816WIMR .. -- .-.
PROVINCETOWN336/38.238916WPVC .--. ...- -.-.
ROLLINS192/39.726016WESG . ... --.

Heliport Services

Runway Information

Helipad H1

Dimensions: 40 x 100 ft. / 12 x 30 m
Surface: turf
Traffic pattern: leftleft

Heliport Ownership and Management from official FAA records

Ownership: Privately-owned
Owner: SEAGATE SMITH'S POINT LP
219 VASSAR ST
CAMBRIDGE, MA 02139
Phone 617-528-1805
Manager: ALAN ROTH
219 VASSAR ST
CAMBRIDGE, MA 02139
Phone 617-528-1805

Heliport Operational Statistics

Aircraft based on the field: 1
Helicopters: 1
    

Additional Remarks

FOR CD CTC BOSTON APCH AT 603-594-5554.

Instrument Procedures

There are no published instrument procedures at 33MA.

Some nearby airports with instrument procedures:

KBVY - Beverly Regional Airport (7 nm W)
KBOS - General Edward Lawrence Logan International Airport (16 nm SW)
KLWM - Lawrence Municipal Airport (18 nm NW)
KBED - Laurence G Hanscom Field Airport (23 nm W)
KGHG - Marshfield Municipal Airport - George Harlow Field (28 nm S)
 
Loc | Ops | Rwys | IFR | FBO | Links
Com | Nav | Svcs | Stats | Notes
Area around 33MA (Seagate Heliport)
 
Road maps at: MapQuest Bing Google
 
Aerial photo
No photo
 
Sectional chart

 
Airport distance calculator
Flying to Seagate Heliport? Find the distance to fly.

From to 33MA

Sunrise and sunset
Times for 11-Dec-2019
 Local
(UTC-5)
 Zulu
(UTC)
Morning civil twilight06:3211:32
Sunrise07:0412:04
Sunset16:0921:09
Evening civil twilight16:4121:41

Current date and time
Zulu (UTC)  11-Dec-2019 09:49:57
Local (UTC-5)  11-Dec-2019 04:49:57
 
METAR
KBVY 
7nm W 
110941Z AUTO 32008KT 2SM -SN BR FEW010 SCT019 OVC032 00/M02 A3015 RMK AO2 P0001 T00001022
KBOS 
16nm SW 
110902Z 31015G22KT 4SM -SN FEW009 SCT015 OVC031 01/M02 A3015 RMK AO2 P0000 T00111022
KLWM 
19nm NW 
110936Z AUTO 31008G17KT 3SM -SN OVC023 M01/M04 A3017 RMK AO2 P0000 T10061039
TAF
KBOS 
16nm SW 
110810Z 1108/1212 32011G17KT 1SM -SN OVC008 TEMPO 1108/1112 1/2SM SN FG FM111430 30010KT 5SM -SN OVC030 FM111600 29010KT P6SM SCT050 BKN100 FM112200 26008KT P6SM FEW250 FM120800 29014G26KT P6SM SKC
NOTAMs
Click for the latest NOTAMs
NOTAMs are issued by the DoD/FAA and will open in a separate window not controlled by AirNav.

 

 
 

Would you like to see your business listed on this page?

 If your business provides an interesting product or service to pilots, flight crews, aircraft, or users of the Seagate Heliport, you should consider listing it here.  To start the listing process, click on the button below
 
Add a business
 

Other Pages about Seagate Heliport

Update a link
 
Copyright © AirNav, LLC. All rights reserved. Privacy Policy  Contact